Time;durP1;ratioP1;P1;durP2;ratioP2;P2;SDS_P1;SDS_P2;PMS_P1;PMS_P2;Temp;Humidity;BMP_temperature;BMP_pressure;BME280_temperature;BME280_humidity;BME280_pressure;Samples;Min_cycle;Max_cycle;Signal;HPM_P1;HPM_P2
2023/05/11 00:01:24;;;;;;;30.92;21.48;;;16.00;99.90;;;;;;4962160;28;20037;-76
2023/05/11 00:03:50;;;;;;;32.13;21.55;;;16.00;99.90;;;;;;4963643;28;20560;-75
2023/05/11 00:06:16;;;;;;;33.05;22.33;;;16.00;99.90;;;;;;4959740;28;20051;-75
2023/05/11 00:08:41;;;;;;;31.05;22.15;;;15.90;99.90;;;;;;4953093;28;20208;-76
2023/05/11 00:11:10;;;;;;;30.98;19.95;;;15.90;99.90;;;;;;4971843;28;20026;-74
2023/05/11 00:13:36;;;;;;;32.50;22.15;;;15.90;99.90;;;;;;4955400;28;20098;-76
2023/05/11 00:16:02;;;;;;;33.97;23.83;;;15.90;99.90;;;;;;4937743;28;20468;-75
2023/05/11 00:18:28;;;;;;;34.20;22.80;;;15.90;99.90;;;;;;4962301;28;20027;-76
2023/05/11 00:20:54;;;;;;;32.53;22.80;;;15.80;99.90;;;;;;4951868;28;20747;-75
2023/05/11 00:23:19;;;;;;;33.60;23.02;;;15.80;99.90;;;;;;4964755;28;20141;-76
2023/05/11 00:25:45;;;;;;;34.60;23.40;;;15.80;99.90;;;;;;4957965;28;20034;-75
2023/05/11 00:28:13;;;;;;;34.78;22.52;;;15.80;99.90;;;;;;4966095;28;20354;-75
2023/05/11 00:30:41;;;;;;;37.97;23.17;;;15.80;99.90;;;;;;4970669;28;20026;-75
2023/05/11 00:33:07;;;;;;;35.58;22.00;;;15.70;99.90;;;;;;4965756;28;20027;-75
2023/05/11 00:35:32;;;;;;;29.50;21.55;;;15.70;99.90;;;;;;4956421;28;20490;-75
2023/05/11 00:37:58;;;;;;;30.27;21.70;;;15.70;99.90;;;;;;4957885;28;20504;-76
2023/05/11 00:40:24;;;;;;;34.33;22.15;;;15.70;99.90;;;;;;4967204;28;20748;-76
2023/05/11 00:42:50;;;;;;;33.97;23.42;;;15.80;99.90;;;;;;4955352;28;20039;-76
2023/05/11 00:45:15;;;;;;;35.60;22.98;;;15.70;99.90;;;;;;4952670;28;20031;-75
2023/05/11 00:47:41;;;;;;;38.15;25.00;;;15.70;99.90;;;;;;4956353;28;20634;-75
2023/05/11 00:50:08;;;;;;;36.03;22.95;;;15.70;99.90;;;;;;4969333;28;20022;-76
2023/05/11 00:52:34;;;;;;;32.58;23.67;;;15.70;99.90;;;;;;4956366;28;20182;-75
2023/05/11 00:55:00;;;;;;;34.28;23.40;;;15.60;99.90;;;;;;4969897;28;20462;-76
2023/05/11 00:57:26;;;;;;;37.78;25.02;;;15.60;99.90;;;;;;4966854;28;20074;-75
2023/05/11 00:59:51;;;;;;;44.22;27.83;;;15.60;99.90;;;;;;4970252;28;20441;-75
2023/05/11 01:02:18;;;;;;;38.85;25.52;;;15.60;99.90;;;;;;4969660;28;20069;-74
2023/05/11 01:04:44;;;;;;;38.53;26.38;;;15.60;99.90;;;;;;4961071;28;20847;-75
2023/05/11 01:07:15;;;;;;;41.40;27.80;;;15.50;99.90;;;;;;4963179;28;20027;-76
2023/05/11 01:09:51;;;;;;;39.03;25.15;;;15.50;99.90;;;;;;4957559;28;20481;-75
2023/05/11 01:12:46;;;;;;;41.45;25.88;;;15.60;99.90;;;;;;4960913;28;20058;-75
2023/05/11 01:15:51;;;;;;;46.90;28.13;;;15.60;99.90;;;;;;4937749;29;20042;-75
2023/05/11 01:18:42;;;;;;;42.88;28.42;;;15.60;99.90;;;;;;4965609;28;20070;-76
2023/05/11 01:21:08;;;;;;;;;;;15.60;99.90;;;;;;4966533;28;20113;-75
2023/05/11 01:23:52;;;;;;;43.90;26.05;;;15.60;99.90;;;;;;4951769;28;19914;-76
2023/05/11 01:26:37;;;;;;;43.33;27.17;;;15.60;99.90;;;;;;4971159;28;20086;-76
2023/05/11 01:29:10;;;;;;;42.50;27.00;;;15.60;99.90;;;;;;4945285;28;20026;-76
2023/05/11 01:31:41;;;;;;;45.38;29.50;;;15.60;99.90;;;;;;4964892;28;20110;-77
2023/05/11 01:34:15;;;;;;;42.85;26.95;;;15.50;99.90;;;;;;4967758;28;20049;-76
2023/05/11 01:36:50;;;;;;;44.55;28.80;;;15.50;99.90;;;;;;4973528;28;20027;-75
2023/05/11 01:39:20;;;;;;;47.05;28.70;;;15.50;99.90;;;;;;4966919;28;20067;-76
2023/05/11 01:41:52;;;;;;;49.05;29.35;;;15.50;99.90;;;;;;4962291;28;20643;-75
2023/05/11 01:44:20;;;;;;;44.55;29.33;;;15.50;99.90;;;;;;4972531;28;20046;-75
2023/05/11 01:46:46;;;;;;;47.63;27.58;;;15.50;99.90;;;;;;4965127;28;20394;-76
2023/05/11 01:49:14;;;;;;;47.53;28.80;;;15.50;99.90;;;;;;4955809;28;20034;-77
2023/05/11 01:51:42;;;;;;;50.35;29.05;;;15.50;99.90;;;;;;4971557;28;20081;-76
2023/05/11 01:54:10;;;;;;;39.80;26.60;;;15.40;99.90;;;;;;4955667;28;20500;-76
2023/05/11 01:56:39;;;;;;;43.60;27.83;;;15.40;99.90;;;;;;4972275;28;20106;-76
2023/05/11 01:59:05;;;;;;;42.28;27.30;;;15.40;99.90;;;;;;4953900;28;20397;-76
2023/05/11 02:01:34;;;;;;;50.00;29.55;;;15.40;99.90;;;;;;4961836;28;20026;-76
2023/05/11 02:04:02;;;;;;;43.83;25.77;;;15.40;99.90;;;;;;4964444;28;20143;-76
2023/05/11 02:06:31;;;;;;;43.47;27.17;;;15.40;99.90;;;;;;4968265;28;20516;-75
2023/05/11 02:08:58;;;;;;;46.08;28.25;;;15.50;99.90;;;;;;4941851;29;20393;-76
2023/05/11 02:11:26;;;;;;;48.80;29.60;;;15.50;99.90;;;;;;4948467;28;20078;-76
2023/05/11 02:13:55;;;;;;;45.75;27.00;;;15.50;99.90;;;;;;4972801;28;20023;-77
2023/05/11 02:16:22;;;;;;;42.25;26.10;;;15.50;99.90;;;;;;4968846;28;20026;-76
2023/05/11 02:18:49;;;;;;;43.55;26.73;;;15.60;99.90;;;;;;4971871;28;20027;-77
2023/05/11 02:21:16;;;;;;;45.15;27.67;;;15.60;99.90;;;;;;4969768;28;20038;-76
2023/05/11 02:23:43;;;;;;;47.45;28.50;;;15.60;99.90;;;;;;4961411;28;20027;-77
2023/05/11 02:26:10;;;;;;;46.70;28.77;;;15.60;99.90;;;;;;4966241;28;20050;-77
2023/05/11 02:28:36;;;;;;;49.17;29.83;;;15.60;99.90;;;;;;4966894;28;20123;-76
2023/05/11 02:31:08;;;;;;;45.67;28.67;;;15.60;99.90;;;;;;4956976;28;20464;-77
2023/05/11 02:33:37;;;;;;;45.30;28.45;;;15.50;99.90;;;;;;4953667;28;20213;-77
2023/05/11 02:36:05;;;;;;;45.75;28.27;;;15.60;99.90;;;;;;4955870;28;20051;-77
2023/05/11 02:38:34;;;;;;;45.25;28.02;;;15.60;99.90;;;;;;4971321;28;20026;-76
2023/05/11 02:41:06;;;;;;;44.70;28.20;;;15.50;99.90;;;;;;4958006;28;20437;-77
2023/05/11 02:43:35;;;;;;;48.55;28.27;;;15.50;99.90;;;;;;4961618;28;20377;-77
2023/05/11 02:46:07;;;;;;;46.60;30.08;;;15.50;99.90;;;;;;4958682;28;20408;-77
2023/05/11 02:48:44;;;;;;;50.97;29.45;;;15.50;99.90;;;;;;4948925;28;20014;-77
2023/05/11 02:51:11;;;;;;;42.72;27.90;;;15.40;99.90;;;;;;4966473;28;20027;-76
2023/05/11 02:53:40;;;;;;;48.70;30.00;;;15.40;99.90;;;;;;4961416;28;20111;-76
2023/05/11 02:56:07;;;;;;;51.95;29.88;;;15.40;99.90;;;;;;4963652;28;20252;-77
2023/05/11 02:58:33;;;;;;;51.35;30.05;;;15.40;99.90;;;;;;4970134;28;20601;-76
2023/05/11 03:00:59;;;;;;;49.85;29.73;;;15.40;99.90;;;;;;4973220;28;20035;-76
2023/05/11 03:03:25;;;;;;;52.10;30.40;;;15.40;99.90;;;;;;4968350;28;20082;-76
2023/05/11 03:05:51;;;;;;;54.65;30.77;;;15.40;99.90;;;;;;4953883;28;20082;-76
2023/05/11 03:08:17;;;;;;;55.15;31.85;;;15.40;99.90;;;;;;4966807;28;20027;-76
2023/05/11 03:10:43;;;;;;;52.58;33.28;;;15.40;99.90;;;;;;4963497;28;20041;-77
2023/05/11 03:13:09;;;;;;;52.05;31.00;;;15.40;99.90;;;;;;4969209;28;20026;-77
2023/05/11 03:15:36;;;;;;;57.92;33.00;;;15.50;99.90;;;;;;4954503;28;20034;-77
2023/05/11 03:18:04;;;;;;;54.90;32.17;;;15.40;99.90;;;;;;4970014;28;20114;-77
2023/05/11 03:20:32;;;;;;;59.17;32.95;;;15.40;99.90;;;;;;4951070;28;20022;-78
2023/05/11 03:22:59;;;;;;;55.72;31.50;;;15.40;99.90;;;;;;4970102;28;20035;-78
2023/05/11 03:25:25;;;;;;;52.13;31.70;;;15.40;99.90;;;;;;4968216;28;20030;-76
2023/05/11 03:27:52;;;;;;;59.53;34.45;;;15.40;99.90;;;;;;4968446;28;20134;-77
2023/05/11 03:30:19;;;;;;;57.63;33.13;;;15.40;99.90;;;;;;4964197;28;20091;-78
2023/05/11 03:32:45;;;;;;;57.88;32.65;;;15.40;99.90;;;;;;4966426;28;20031;-77
2023/05/11 03:35:10;;;;;;;57.20;32.85;;;15.40;99.90;;;;;;4969793;28;20086;-76
2023/05/11 03:37:37;;;;;;;59.30;33.50;;;15.40;99.90;;;;;;4957992;28;20055;-77
2023/05/11 03:40:06;;;;;;;56.38;32.45;;;15.40;99.90;;;;;;4969462;28;20054;-77
2023/05/11 03:42:33;;;;;;;62.75;34.30;;;15.40;99.90;;;;;;4939781;28;20431;-77
2023/05/11 03:45:00;;;;;;;57.88;32.55;;;15.40;99.90;;;;;;4966553;28;20094;-76
2023/05/11 03:47:27;;;;;;;52.47;30.05;;;15.40;99.90;;;;;;4955834;28;20038;-77
2023/05/11 03:49:54;;;;;;;50.45;28.95;;;15.40;99.90;;;;;;4963768;28;20490;-78
2023/05/11 03:52:21;;;;;;;51.88;28.50;;;15.40;99.90;;;;;;4969623;28;20020;-77
2023/05/11 03:54:48;;;;;;;48.05;29.13;;;15.40;99.90;;;;;;4963143;28;20027;-76
2023/05/11 03:57:14;;;;;;;38.88;24.40;;;15.40;99.90;;;;;;4972594;28;20029;-78
2023/05/11 03:59:40;;;;;;;50.40;29.42;;;15.30;99.90;;;;;;4972830;28;20357;-76
2023/05/11 04:02:07;;;;;;;57.85;30.95;;;15.30;99.90;;;;;;4954861;28;20043;-77
2023/05/11 04:04:33;;;;;;;49.35;30.00;;;15.30;99.90;;;;;;4971712;28;20023;-77
2023/05/11 04:06:59;;;;;;;48.55;27.77;;;15.30;99.90;;;;;;4961901;28;20041;-77
2023/05/11 04:09:25;;;;;;;50.35;28.88;;;15.30;99.90;;;;;;4964898;28;20011;-76
2023/05/11 04:11:51;;;;;;;54.30;31.15;;;15.30;99.90;;;;;;4965274;28;20026;-77
2023/05/11 04:14:17;;;;;;;52.00;30.73;;;15.30;99.90;;;;;;4965874;28;20026;-76
2023/05/11 04:16:43;;;;;;;52.00;30.98;;;15.30;99.90;;;;;;4956644;28;20367;-76
2023/05/11 04:19:09;;;;;;;46.85;26.80;;;15.30;99.90;;;;;;4955963;28;20011;-77
2023/05/11 04:21:35;;;;;;;49.35;28.85;;;15.30;99.90;;;;;;4964253;28;20031;-78
2023/05/11 04:24:01;;;;;;;54.78;31.05;;;15.30;99.90;;;;;;4964368;28;20070;-77
2023/05/11 04:26:27;;;;;;;48.25;29.38;;;15.30;99.90;;;;;;4966810;28;20114;-76
2023/05/11 04:28:52;;;;;;;49.05;28.58;;;15.30;99.90;;;;;;4954152;28;20130;-76
2023/05/11 04:31:18;;;;;;;47.83;27.73;;;15.30;99.90;;;;;;4968166;28;20022;-76
2023/05/11 04:33:44;;;;;;;45.20;28.65;;;15.30;99.90;;;;;;4959694;28;20035;-77
2023/05/11 04:36:09;;;;;;;42.60;25.98;;;15.30;99.90;;;;;;4964422;28;20027;-77
2023/05/11 04:38:36;;;;;;;42.90;27.50;;;15.30;99.90;;;;;;4961146;28;20103;-76
2023/05/11 04:41:05;;;;;;;52.10;29.70;;;15.30;99.90;;;;;;4960468;28;20042;-76
2023/05/11 04:43:30;;;;;;;49.28;28.05;;;15.30;99.90;;;;;;4955703;28;20039;-77
2023/05/11 04:45:58;;;;;;;44.13;26.13;;;15.40;99.90;;;;;;4967469;28;20038;-76
2023/05/11 04:48:23;;;;;;;44.88;28.05;;;15.40;99.90;;;;;;4958625;28;20031;-77
2023/05/11 04:50:49;;;;;;;38.08;23.45;;;15.40;99.90;;;;;;4966205;28;20042;-76
2023/05/11 04:53:16;;;;;;;41.38;25.55;;;15.40;99.90;;;;;;4935800;29;20482;-76
2023/05/11 04:55:42;;;;;;;42.20;26.40;;;15.40;99.90;;;;;;4952653;28;20023;-77
2023/05/11 04:58:07;;;;;;;36.05;23.05;;;15.40;99.90;;;;;;4961234;28;20402;-77
2023/05/11 05:00:33;;;;;;;37.03;23.77;;;15.40;99.90;;;;;;4937397;28;20220;-76
2023/05/11 05:02:59;;;;;;;36.03;24.40;;;15.40;99.90;;;;;;4952436;28;20031;-76
2023/05/11 05:05:24;;;;;;;42.55;25.15;;;15.40;99.90;;;;;;4958067;28;20054;-76
2023/05/11 05:07:50;;;;;;;41.05;26.15;;;15.40;99.90;;;;;;4945236;29;20033;-78
2023/05/11 05:10:16;;;;;;;41.63;24.38;;;15.40;99.90;;;;;;4951357;28;20482;-78
2023/05/11 05:12:41;;;;;;;45.00;25.92;;;15.50;99.90;;;;;;4964888;28;20047;-78
2023/05/11 05:15:07;;;;;;;41.58;27.13;;;15.50;99.90;;;;;;4957407;28;20094;-77
2023/05/11 05:17:33;;;;;;;36.47;24.50;;;15.50;99.90;;;;;;4968682;28;20189;-78
2023/05/11 05:19:59;;;;;;;41.30;25.90;;;15.50;99.90;;;;;;4958340;28;20078;-78
2023/05/11 05:22:25;;;;;;;38.80;25.20;;;15.40;99.90;;;;;;4970290;28;20043;-76
2023/05/11 05:24:50;;;;;;;38.05;25.00;;;15.40;99.90;;;;;;4972465;28;20389;-76
2023/05/11 05:27:16;;;;;;;38.35;24.23;;;15.40;99.90;;;;;;4955373;28;20023;-76
2023/05/11 05:29:42;;;;;;;35.72;24.65;;;15.40;99.90;;;;;;4971383;28;20022;-77
2023/05/11 05:32:07;;;;;;;39.88;24.73;;;15.40;99.90;;;;;;4971408;28;20030;-75
2023/05/11 05:34:33;;;;;;;35.92;24.17;;;15.30;99.90;;;;;;4966604;28;20141;-77
2023/05/11 05:37:01;;;;;;;34.30;23.20;;;15.40;99.90;;;;;;4957879;28;20031;-77
2023/05/11 05:39:26;;;;;;;37.10;23.58;;;15.40;99.90;;;;;;4965188;28;20027;-78
2023/05/11 05:41:52;;;;;;;32.03;21.95;;;15.40;99.90;;;;;;4955924;28;20045;-76
2023/05/11 05:44:17;;;;;;;34.63;22.13;;;15.40;99.90;;;;;;4970360;28;20094;-77
2023/05/11 05:46:43;;;;;;;36.30;23.50;;;15.50;99.90;;;;;;4953557;28;20082;-79
2023/05/11 05:49:09;;;;;;;36.65;23.27;;;15.50;99.90;;;;;;4962106;28;20074;-77
2023/05/11 05:51:34;;;;;;;36.97;23.02;;;15.50;99.90;;;;;;4965378;28;20031;-77
2023/05/11 05:54:00;;;;;;;35.00;23.17;;;15.50;99.90;;;;;;4968324;28;20505;-77
2023/05/11 05:56:26;;;;;;;35.08;21.02;;;15.50;99.90;;;;;;4963805;28;20023;-77
2023/05/11 05:58:51;;;;;;;32.58;21.40;;;15.50;99.90;;;;;;4971131;28;20270;-79
2023/05/11 06:01:17;;;;;;;35.17;22.50;;;15.50;99.90;;;;;;4961724;28;20058;-77
2023/05/11 06:03:44;;;;;;;33.90;21.67;;;15.60;99.90;;;;;;4949019;29;20493;-77
2023/05/11 06:06:10;;;;;;;32.83;21.60;;;15.70;99.90;;;;;;4953562;28;20023;-78
2023/05/11 06:08:36;;;;;;;35.78;21.00;;;15.70;99.90;;;;;;4960370;28;20023;-79
2023/05/11 06:11:02;;;;;;;30.90;21.23;;;15.70;99.90;;;;;;4959056;28;20117;-76
2023/05/11 06:13:27;;;;;;;30.92;21.95;;;15.80;99.90;;;;;;4945875;28;20031;-79
2023/05/11 06:15:53;;;;;;;28.98;19.92;;;15.80;99.90;;;;;;4968840;28;20030;-78
2023/05/11 06:18:18;;;;;;;35.42;23.80;;;15.80;99.90;;;;;;4955678;28;20031;-78
2023/05/11 06:20:44;;;;;;;27.50;19.30;;;15.80;99.90;;;;;;4972070;28;20098;-78
2023/05/11 06:23:10;;;;;;;27.33;20.73;;;15.80;99.90;;;;;;4969159;28;20057;-78
2023/05/11 06:25:36;;;;;;;29.63;21.25;;;15.80;99.90;;;;;;4967977;28;20054;-78
2023/05/11 06:28:03;;;;;;;30.30;20.85;;;15.90;99.90;;;;;;4955372;28;20050;-78
2023/05/11 06:30:30;;;;;;;32.35;22.73;;;15.90;99.90;;;;;;4965569;28;20050;-79
2023/05/11 06:32:55;;;;;;;30.10;20.40;;;15.90;99.90;;;;;;4958906;28;20030;-77
2023/05/11 06:35:21;;;;;;;28.20;19.52;;;15.90;99.90;;;;;;4971272;28;20065;-78
2023/05/11 06:37:48;;;;;;;29.55;20.90;;;16.00;99.90;;;;;;4953547;28;20035;-80
2023/05/11 06:40:16;;;;;;;28.42;19.85;;;16.10;99.90;;;;;;4963248;28;20061;-77
2023/05/11 06:42:42;;;;;;;31.42;20.77;;;16.20;99.90;;;;;;4971594;28;20045;-78
2023/05/11 06:45:08;;;;;;;27.73;20.08;;;16.20;99.90;;;;;;4969004;28;20118;-78
2023/05/11 06:47:34;;;;;;;26.83;18.25;;;16.30;99.90;;;;;;4936782;29;20452;-80
2023/05/11 06:50:00;;;;;;;26.75;19.33;;;16.40;99.90;;;;;;4963899;28;20039;-78
2023/05/11 06:52:25;;;;;;;28.30;19.50;;;16.50;99.90;;;;;;4961688;28;20032;-78
2023/05/11 06:54:51;;;;;;;29.33;20.55;;;16.50;99.90;;;;;;4961150;28;20482;-79
2023/05/11 06:57:17;;;;;;;30.05;20.83;;;16.60;99.90;;;;;;4962880;28;20109;-79
2023/05/11 06:59:43;;;;;;;30.45;20.85;;;16.70;99.90;;;;;;4954974;28;20031;-79
2023/05/11 07:02:08;;;;;;;34.80;23.20;;;16.70;99.90;;;;;;4972482;28;20026;-78
2023/05/11 07:04:34;;;;;;;30.80;21.65;;;16.80;99.90;;;;;;4958351;28;20045;-79
2023/05/11 07:07:00;;;;;;;34.13;23.90;;;16.80;99.90;;;;;;4970016;28;20037;-78
2023/05/11 07:09:25;;;;;;;28.42;22.02;;;16.80;99.90;;;;;;4968086;28;20032;-80
2023/05/11 07:11:51;;;;;;;35.25;23.90;;;16.80;99.90;;;;;;4967319;28;20066;-78
2023/05/11 07:14:17;;;;;;;32.53;24.35;;;16.80;99.90;;;;;;4956230;28;20150;-76
2023/05/11 07:16:43;;;;;;;32.90;23.83;;;16.80;99.90;;;;;;4962113;28;20031;-77
2023/05/11 07:19:09;;;;;;;37.58;25.65;;;16.90;99.90;;;;;;4970801;28;20497;-77
2023/05/11 07:21:35;;;;;;;32.22;22.90;;;16.90;99.90;;;;;;4965048;28;20035;-77
2023/05/11 07:24:01;;;;;;;32.38;24.42;;;16.90;99.90;;;;;;4960004;28;20023;-76
2023/05/11 07:26:27;;;;;;;31.52;22.33;;;17.00;99.90;;;;;;4960270;28;20374;-78
2023/05/11 07:28:53;;;;;;;31.65;22.65;;;17.00;99.90;;;;;;4958296;28;20090;-77
2023/05/11 07:31:18;;;;;;;33.13;23.08;;;17.00;99.90;;;;;;4956276;28;20063;-79
2023/05/11 07:33:44;;;;;;;31.58;22.80;;;17.10;99.90;;;;;;4964287;28;20070;-78
2023/05/11 07:36:10;;;;;;;26.35;18.92;;;17.20;99.90;;;;;;4948853;28;20134;-77
2023/05/11 07:38:35;;;;;;;29.73;20.10;;;17.20;99.90;;;;;;4966338;28;20102;-76
2023/05/11 07:41:02;;;;;;;32.45;20.83;;;17.30;99.90;;;;;;4967724;28;20018;-77
2023/05/11 07:43:29;;;;;;;32.90;22.80;;;17.30;99.90;;;;;;4966500;28;20046;-76
2023/05/11 07:45:54;;;;;;;33.45;24.33;;;17.20;99.90;;;;;;4964426;28;20077;-77
2023/05/11 07:48:24;;;;;;;36.83;27.52;;;17.10;99.90;;;;;;4972684;28;20026;-77
2023/05/11 07:51:02;;;;;;;35.33;26.48;;;17.00;99.90;;;;;;4972830;28;20046;-77
2023/05/11 07:53:27;;;;;;;38.75;28.45;;;16.90;99.90;;;;;;4969749;28;20031;-77
2023/05/11 07:55:53;;;;;;;41.88;31.52;;;16.90;99.90;;;;;;4968972;28;20029;-76
2023/05/11 07:58:18;;;;;;;43.05;32.25;;;16.90;99.90;;;;;;4959006;28;20026;-77
2023/05/11 08:00:44;;;;;;;43.90;31.10;;;16.90;99.90;;;;;;4950926;28;20418;-77
2023/05/11 08:03:10;;;;;;;41.78;31.23;;;16.90;99.90;;;;;;4966750;28;20081;-76
2023/05/11 08:05:36;;;;;;;42.92;32.55;;;16.90;99.90;;;;;;4962307;28;20047;-77
2023/05/11 08:08:03;;;;;;;46.40;33.85;;;16.80;99.90;;;;;;4965112;28;20031;-78
2023/05/11 08:10:30;;;;;;;38.53;28.63;;;16.80;99.90;;;;;;4965576;28;20074;-78
2023/05/11 08:12:56;;;;;;;42.88;32.58;;;16.80;99.90;;;;;;4964025;28;20033;-80
2023/05/11 08:15:21;;;;;;;40.05;27.88;;;16.90;99.90;;;;;;4937889;29;20563;-80
2023/05/11 08:17:47;;;;;;;32.00;25.13;;;17.00;99.90;;;;;;4968543;28;20029;-81
2023/05/11 08:20:13;;;;;;;40.53;32.95;;;17.20;99.90;;;;;;4952576;28;20050;-80
2023/05/11 08:22:38;;;;;;;39.65;32.03;;;17.30;99.90;;;;;;4951031;28;20035;-79
2023/05/11 08:25:05;;;;;;;37.53;28.27;;;17.40;99.90;;;;;;4954805;28;20023;-80
2023/05/11 08:27:32;;;;;;;42.65;32.80;;;17.40;99.80;;;;;;4962631;28;20035;-80
2023/05/11 08:29:58;;;;;;;35.08;27.15;;;17.40;99.60;;;;;;4974847;28;20059;-82
2023/05/11 08:32:24;;;;;;;40.83;33.65;;;17.50;99.10;;;;;;4972658;28;20054;-82
2023/05/11 08:34:49;;;;;;;36.15;28.48;;;17.50;98.90;;;;;;4975865;28;20460;-81
2023/05/11 08:37:15;;;;;;;42.20;33.65;;;17.50;98.40;;;;;;4959144;28;20374;-81
2023/05/11 08:39:41;;;;;;;41.75;32.40;;;17.50;97.80;;;;;;4979843;28;20023;-83
2023/05/11 08:42:08;;;;;;;40.15;32.03;;;17.60;97.60;;;;;;4971122;28;20045;-80
2023/05/11 08:44:36;;;;;;;37.67;31.20;;;17.70;97.90;;;;;;4965592;28;20058;-77
2023/05/11 08:47:04;;;;;;;42.78;34.85;;;17.80;98.30;;;;;;4958835;28;20103;-79
2023/05/11 08:49:30;;;;;;;42.30;32.20;;;17.90;98.10;;;;;;4956119;28;20023;-81
2023/05/11 08:51:55;;;;;;;35.15;28.05;;;18.10;97.40;;;;;;4961714;28;20035;-80
2023/05/11 08:54:21;;;;;;;40.90;32.92;;;18.30;97.70;;;;;;4962034;28;20019;-79
2023/05/11 08:56:50;;;;;;;31.13;24.70;;;18.50;97.50;;;;;;4963226;28;20039;-81
2023/05/11 08:59:17;;;;;;;33.22;26.23;;;18.60;97.30;;;;;;4959054;28;20025;-78
2023/05/11 09:01:44;;;;;;;35.60;26.38;;;18.80;97.20;;;;;;4967717;28;20027;-79
2023/05/11 09:04:12;;;;;;;34.33;26.98;;;18.90;96.70;;;;;;4960716;28;20058;-80
2023/05/11 09:06:38;;;;;;;39.25;27.50;;;18.90;96.20;;;;;;4971210;28;20035;-80
2023/05/11 09:09:04;;;;;;;29.50;23.38;;;18.90;95.90;;;;;;4958859;28;20106;-80
2023/05/11 09:11:30;;;;;;;30.70;25.35;;;18.80;96.00;;;;;;4971938;28;20110;-80
2023/05/11 09:13:56;;;;;;;33.60;27.33;;;18.80;95.80;;;;;;4963786;28;20027;-79
2023/05/11 09:16:22;;;;;;;36.63;28.77;;;18.80;96.00;;;;;;4961336;28;20031;-79
2023/05/11 09:18:49;;;;;;;34.42;25.70;;;18.80;95.90;;;;;;4961788;28;20034;-79
2023/05/11 09:21:16;;;;;;;32.00;25.70;;;19.00;96.20;;;;;;4966558;28;20023;-80
2023/05/11 09:23:42;;;;;;;35.03;27.50;;;19.20;96.30;;;;;;4950517;28;20130;-80
2023/05/11 09:26:15;;;;;;;38.30;29.73;;;19.40;95.60;;;;;;4968344;28;20103;-80
2023/05/11 09:28:52;;;;;;;38.38;29.10;;;19.50;94.30;;;;;;4970178;28;20102;-80
2023/05/11 09:31:36;;;;;;;34.00;27.92;;;19.60;94.20;;;;;;4965867;28;20050;-80
2023/05/11 09:34:31;;;;;;;31.35;25.05;;;19.60;94.00;;;;;;4961027;28;20058;-80
2023/05/11 09:36:56;;;;;;;28.60;24.20;;;19.50;93.60;;;;;;4947570;28;20034;-81
2023/05/11 09:39:30;;;;;;;26.83;23.13;;;19.30;93.30;;;;;;4956536;28;20031;-80
2023/05/11 09:42:22;;;;;;;28.90;20.25;;;19.20;93.30;;;;;;4965583;28;20023;-80
2023/05/11 09:44:48;;;;;;;30.55;24.40;;;19.10;93.90;;;;;;4963437;28;20026;-80
2023/05/11 09:47:16;;;;;;;34.47;27.40;;;19.00;93.90;;;;;;4961432;28;20708;-80
2023/05/11 09:49:44;;;;;;;20.48;15.60;;;18.90;94.20;;;;;;4954253;28;20055;-80
2023/05/11 09:52:14;;;;;;;16.15;12.55;;;18.90;95.20;;;;;;4969055;28;20015;-80
2023/05/11 09:54:42;;;;;;;31.42;26.75;;;18.90;96.30;;;;;;4964416;28;20122;-80
2023/05/11 09:57:23;;;;;;;36.03;27.48;;;18.80;95.60;;;;;;4970410;28;20563;-80
2023/05/11 09:59:49;;;;;;;36.42;28.10;;;18.70;95.30;;;;;;4961304;28;20047;-80
2023/05/11 10:02:29;;;;;;;30.33;23.45;;;18.70;95.50;;;;;;4953705;28;20089;-80
2023/05/11 10:04:57;;;;;;;40.88;31.58;;;18.70;95.90;;;;;;4962157;28;20043;-81
2023/05/11 10:07:34;;;;;;;23.42;17.27;;;18.60;95.80;;;;;;4974437;28;20018;-80
2023/05/11 10:10:08;;;;;;;29.75;24.02;;;18.60;96.20;;;;;;4974169;28;20477;-80
2023/05/11 10:12:37;;;;;;;40.72;32.78;;;18.50;96.50;;;;;;4946305;29;20062;-80
2023/05/11 10:15:02;;;;;;;23.38;18.00;;;18.40;96.80;;;;;;4969667;28;20089;-80
2023/05/11 10:17:35;;;;;;;41.33;29.40;;;18.40;97.10;;;;;;4972316;28;20477;-80
2023/05/11 10:20:03;;;;;;;37.30;27.25;;;18.40;97.20;;;;;;4969251;28;20042;-80
2023/05/11 10:22:29;;;;;;;37.97;28.15;;;18.40;97.20;;;;;;4964005;28;20057;-82
2023/05/11 10:25:01;;;;;;;38.13;31.77;;;18.40;97.20;;;;;;4958917;28;20027;-80
2023/05/11 10:27:27;;;;;;;32.05;24.83;;;18.40;97.50;;;;;;4978487;28;20050;-81
2023/05/11 10:29:53;;;;;;;41.90;30.50;;;18.50;96.90;;;;;;4971078;28;20031;-80
2023/05/11 10:32:19;;;;;;;34.95;25.75;;;18.50;96.80;;;;;;4968817;28;20023;-81
2023/05/11 10:34:46;;;;;;;17.77;13.73;;;18.50;96.80;;;;;;4944726;29;20047;-80
2023/05/11 10:37:13;;;;;;;28.75;21.98;;;18.60;97.00;;;;;;4951782;29;20024;-80
2023/05/11 10:39:40;;;;;;;34.95;27.02;;;18.60;97.00;;;;;;4933427;29;20866;-80
2023/05/11 10:42:23;;;;;;;33.25;26.20;;;18.50;96.70;;;;;;4948776;29;20106;-81
2023/05/11 10:45:27;;;;;;;32.10;24.58;;;18.60;96.90;;;;;;4950268;29;20461;-80
2023/05/11 10:48:25;;;;;;;28.23;23.98;;;18.60;96.90;;;;;;4900981;29;20039;-79
2023/05/11 10:51:24;;;;;;;37.15;28.75;;;18.70;96.50;;;;;;4958392;29;20818;-80
2023/05/11 10:54:17;;;;;;;32.83;24.43;;;18.60;95.80;;;;;;4954879;29;20089;-78
2023/05/11 10:56:49;;;;;;;38.28;28.10;;;18.60;96.10;;;;;;4959875;29;20027;-80
2023/05/11 10:59:34;;;;;;;33.65;27.77;;;18.70;96.20;;;;;;4951974;29;20052;-80
2023/05/11 11:02:01;;;;;;;34.65;28.48;;;18.70;96.30;;;;;;4937674;29;20039;-80
2023/05/11 11:04:41;;;;;;;31.15;24.70;;;18.70;95.70;;;;;;4955615;29;20026;-80
2023/05/11 11:07:08;;;;;;;33.03;25.55;;;18.60;95.90;;;;;;4946468;29;20023;-81
2023/05/11 11:09:53;;;;;;;34.08;27.85;;;18.50;95.60;;;;;;4950255;29;20031;-80
2023/05/11 11:12:21;;;;;;;24.45;19.70;;;18.40;96.00;;;;;;4956891;28;20086;-80
2023/05/11 11:14:54;;;;;;;28.77;22.63;;;18.30;96.40;;;;;;4946961;29;20474;-80
2023/05/11 11:17:22;;;;;;;38.40;29.50;;;18.20;96.60;;;;;;4929870;28;20422;-76
2023/05/11 11:19:48;;;;;;;35.42;29.38;;;18.10;96.60;;;;;;4953314;29;20047;-76
2023/05/11 11:22:37;;;;;;;36.95;30.08;;;17.90;96.60;;;;;;4942353;29;20063;-79
2023/05/11 11:25:07;;;;;;;37.30;29.10;;;17.80;96.80;;;;;;4939791;29;20036;-77
2023/05/11 11:27:57;;;;;;;31.63;25.63;;;17.70;97.30;;;;;;4941105;29;20031;-77
2023/05/11 11:30:31;;;;;;;34.67;27.10;;;17.60;97.20;;;;;;4940224;29;20597;-78
2023/05/11 11:33:11;;;;;;;31.20;23.45;;;17.50;97.40;;;;;;4945434;29;20169;-80
2023/05/11 11:35:40;;;;;;;35.85;26.65;;;17.30;97.50;;;;;;4966790;28;20529;-78
2023/05/11 11:38:10;;;;;;;32.03;24.58;;;17.20;98.20;;;;;;4970245;28;20026;-78
2023/05/11 11:40:52;;;;;;;29.90;23.20;;;17.10;98.70;;;;;;4967683;28;20110;-78
2023/05/11 11:43:23;;;;;;;31.88;24.70;;;17.00;99.30;;;;;;4961085;28;20074;-79
2023/05/11 11:45:53;;;;;;;34.78;27.25;;;17.00;99.70;;;;;;4962533;28;20031;-77
2023/05/11 11:48:34;;;;;;;36.47;27.55;;;16.90;99.90;;;;;;4959592;28;20042;-78
2023/05/11 11:51:05;;;;;;;38.45;28.30;;;16.80;99.90;;;;;;4966866;28;20822;-78
2023/05/11 11:53:39;;;;;;;41.03;31.35;;;16.80;99.90;;;;;;4958650;28;20037;-77
2023/05/11 11:56:25;;;;;;;42.22;32.15;;;16.80;99.90;;;;;;4956179;28;20031;-78
2023/05/11 11:58:51;;;;;;;42.28;31.10;;;16.90;99.90;;;;;;4961354;28;20035;-80
2023/05/11 12:01:22;;;;;;;46.55;34.17;;;16.90;99.90;;;;;;4962453;28;20031;-80
2023/05/11 12:04:03;;;;;;;46.50;35.28;;;17.00;99.90;;;;;;4938390;28;20490;-78
2023/05/11 12:06:36;;;;;;;44.47;32.17;;;17.00;99.90;;;;;;4957408;28;20094;-78
2023/05/11 12:09:03;;;;;;;43.70;32.40;;;17.00;99.90;;;;;;4956228;28;20105;-78
2023/05/11 12:11:30;;;;;;;45.05;33.92;;;17.00;99.90;;;;;;4962797;28;20059;-81
2023/05/11 12:13:58;;;;;;;41.80;32.92;;;17.00;99.90;;;;;;4960555;28;20963;-80
2023/05/11 12:16:23;;;;;;;43.05;32.15;;;17.00;99.90;;;;;;4964336;28;20022;-81
2023/05/11 12:18:55;;;;;;;40.28;31.65;;;16.90;99.90;;;;;;4957321;28;20042;-80
2023/05/11 12:21:23;;;;;;;40.63;32.10;;;16.90;99.90;;;;;;4964089;28;20960;-80
2023/05/11 12:23:58;;;;;;;41.17;30.65;;;16.90;99.90;;;;;;4958413;28;20039;-79
2023/05/11 12:26:28;;;;;;;42.80;31.98;;;16.90;99.90;;;;;;4966224;28;20026;-78
2023/05/11 12:29:07;;;;;;;39.03;30.25;;;17.00;99.90;;;;;;4963746;28;20027;-79
2023/05/11 12:31:45;;;;;;;41.03;31.23;;;17.00;99.90;;;;;;4957339;28;20070;-79
2023/05/11 12:34:15;;;;;;;37.55;30.52;;;17.00;99.90;;;;;;4959776;28;20134;-74
2023/05/11 12:36:42;;;;;;;;;;;17.10;99.90;;;;;;4962179;28;20123;-81